Terminal Aerodrome Forecast
Issued by NWS Mt. Holly, NJ

Home | Current Version | Previous Version | Text Only | Print | Product List | Glossary On
Versions: 1 2 3 4 5 6 7 8 9 10 11 12 13 14 15 16 17 18
000
FTUS41 KPHI 061929 AAA
TAFRDG
TAF AMD
KRDG 061929Z 0619/0718 02007KT P6SM VCSH OVC070
     FM062100 05005KT P6SM BKN050
     FM062300 VRB03KT P6SM BKN050
     FM070600 VRB03KT 6SM BR BKN050
     FM071200 14003KT P6SM BKN050=

USA.gov is the U.S. government's official web portal to all federal, state and local government web resources and services.